sensor_id;sensor_type;location;lat;lon;timestamp;pressure;altitude;pressure_sealevel;temperature;humidity
44697;BME280;57264;47.480;19.354;2022-10-19T00:01:42;99578.44;;;13.42;58.85
44697;BME280;57264;47.480;19.354;2022-10-19T00:04:08;99568.78;;;13.26;59.68
44697;BME280;57264;47.480;19.354;2022-10-19T00:06:35;99568.13;;;13.04;61.76
44697;BME280;57264;47.480;19.354;2022-10-19T00:11:30;99562.94;;;12.54;64.32
44697;BME280;57264;47.480;19.354;2022-10-19T00:13:57;99559.53;;;12.32;65.21
44697;BME280;57264;47.480;19.354;2022-10-19T00:16:24;99561.91;;;12.07;66.02
44697;BME280;57264;47.480;19.354;2022-10-19T00:18:50;99557.56;;;11.84;67.47
44697;BME280;57264;47.480;19.354;2022-10-19T00:21:17;99554.31;;;11.67;67.73
44697;BME280;57264;47.480;19.354;2022-10-19T00:23:43;99546.91;;;11.48;68.35
44697;BME280;57264;47.480;19.354;2022-10-19T00:26:09;99555.53;;;11.37;68.85
44697;BME280;57264;47.480;19.354;2022-10-19T00:28:35;99544.00;;;11.28;69.07
44697;BME280;57264;47.480;19.354;2022-10-19T00:31:06;99550.00;;;11.23;69.69
44697;BME280;57264;47.480;19.354;2022-10-19T00:33:33;99550.38;;;11.20;69.86
44697;BME280;57264;47.480;19.354;2022-10-19T00:35:58;99541.03;;;11.23;70.37
44697;BME280;57264;47.480;19.354;2022-10-19T00:38:24;99529.25;;;11.30;70.68
44697;BME280;57264;47.480;19.354;2022-10-19T00:40:50;99530.16;;;11.38;70.02
44697;BME280;57264;47.480;19.354;2022-10-19T00:43:19;99525.81;;;11.43;69.97
44697;BME280;57264;47.480;19.354;2022-10-19T00:45:45;99518.16;;;11.47;69.65
44697;BME280;57264;47.480;19.354;2022-10-19T00:48:14;99520.72;;;11.55;69.64
44697;BME280;57264;47.480;19.354;2022-10-19T00:50:41;99519.09;;;11.61;69.32
44697;BME280;57264;47.480;19.354;2022-10-19T00:53:07;99518.06;;;11.62;69.36
44697;BME280;57264;47.480;19.354;2022-10-19T00:55:33;99512.47;;;11.63;69.37
44697;BME280;57264;47.480;19.354;2022-10-19T00:58:01;99514.34;;;11.63;69.52
44697;BME280;57264;47.480;19.354;2022-10-19T01:03:49;99511.22;;;11.66;69.43
44697;BME280;57264;47.480;19.354;2022-10-19T01:06:16;99509.16;;;11.68;68.79
44697;BME280;57264;47.480;19.354;2022-10-19T01:08:42;99491.28;;;11.67;68.99
44697;BME280;57264;47.480;19.354;2022-10-19T01:30:38;99478.31;;;11.62;68.71
44697;BME280;57264;47.480;19.354;2022-10-19T01:36:04;99475.94;;;11.46;69.41
44697;BME280;57264;47.480;19.354;2022-10-19T01:38:36;99471.31;;;11.40;69.94
44697;BME280;57264;47.480;19.354;2022-10-19T01:41:12;99466.09;;;11.38;70.05
44697;BME280;57264;47.480;19.354;2022-10-19T01:43:44;99459.31;;;11.49;69.56
44697;BME280;57264;47.480;19.354;2022-10-19T01:46:18;99458.47;;;11.48;69.86
44697;BME280;57264;47.480;19.354;2022-10-19T01:49:00;99458.47;;;11.48;68.84
44697;BME280;57264;47.480;19.354;2022-10-19T01:51:29;99460.13;;;11.49;69.40
44697;BME280;57264;47.480;19.354;2022-10-19T01:53:58;99462.41;;;11.46;68.87
44697;BME280;57264;47.480;19.354;2022-10-19T01:56:27;99458.63;;;11.40;69.14
44697;BME280;57264;47.480;19.354;2022-10-19T01:58:57;99456.72;;;11.34;69.71
44697;BME280;57264;47.480;19.354;2022-10-19T02:01:27;99462.25;;;11.26;69.28
44697;BME280;57264;47.480;19.354;2022-10-19T02:03:56;99461.81;;;11.22;70.09
44697;BME280;57264;47.480;19.354;2022-10-19T02:06:22;99464.28;;;11.17;70.37
44697;BME280;57264;47.480;19.354;2022-10-19T02:08:50;99465.56;;;11.21;69.81
44697;BME280;57264;47.480;19.354;2022-10-19T02:11:17;99467.66;;;11.54;68.71
44697;BME280;57264;47.480;19.354;2022-10-19T02:13:44;99458.56;;;11.97;66.73
44697;BME280;57264;47.480;19.354;2022-10-19T02:16:18;99460.91;;;12.06;66.19
44697;BME280;57264;47.480;19.354;2022-10-19T02:18:47;99458.28;;;12.33;65.55
44697;BME280;57264;47.480;19.354;2022-10-19T02:21:14;99450.22;;;12.46;65.04
44697;BME280;57264;47.480;19.354;2022-10-19T02:23:39;99453.38;;;12.57;64.68
44697;BME280;57264;47.480;19.354;2022-10-19T02:26:05;99456.72;;;12.72;64.29
44697;BME280;57264;47.480;19.354;2022-10-19T02:28:31;99457.75;;;12.64;64.89
44697;BME280;57264;47.480;19.354;2022-10-19T02:30:57;99453.13;;;12.51;65.05
44697;BME280;57264;47.480;19.354;2022-10-19T02:33:24;99455.00;;;12.38;65.87
44697;BME280;57264;47.480;19.354;2022-10-19T02:35:50;99450.38;;;12.31;66.16
44697;BME280;57264;47.480;19.354;2022-10-19T02:38:19;99447.03;;;12.29;66.65
44697;BME280;57264;47.480;19.354;2022-10-19T02:41:17;99446.44;;;12.47;66.16
44697;BME280;57264;47.480;19.354;2022-10-19T02:43:41;99447.72;;;12.51;65.79
44697;BME280;57264;47.480;19.354;2022-10-19T02:48:44;99463.31;;;12.36;67.01
44697;BME280;57264;47.480;19.354;2022-10-19T02:51:36;99457.00;;;12.29;67.24
44697;BME280;57264;47.480;19.354;2022-10-19T02:54:03;99460.97;;;12.26;67.94
44697;BME280;57264;47.480;19.354;2022-10-19T02:56:30;99456.19;;;12.28;67.44
44697;BME280;57264;47.480;19.354;2022-10-19T02:58:56;99453.28;;;12.23;67.84
44697;BME280;57264;47.480;19.354;2022-10-19T03:01:21;99461.56;;;12.15;67.93
44697;BME280;57264;47.480;19.354;2022-10-19T03:03:47;99459.03;;;12.07;68.54
44697;BME280;57264;47.480;19.354;2022-10-19T03:06:13;99459.06;;;12.13;68.17
44697;BME280;57264;47.480;19.354;2022-10-19T03:08:38;99466.97;;;12.08;68.39
44697;BME280;57264;47.480;19.354;2022-10-19T03:11:04;99457.13;;;12.01;68.67
44697;BME280;57264;47.480;19.354;2022-10-19T03:13:29;99455.13;;;12.23;68.49
44697;BME280;57264;47.480;19.354;2022-10-19T03:15:55;99458.34;;;12.46;67.78
44697;BME280;57264;47.480;19.354;2022-10-19T03:18:20;99452.09;;;12.52;67.71
44697;BME280;57264;47.480;19.354;2022-10-19T03:20:46;99452.13;;;12.66;67.23
44697;BME280;57264;47.480;19.354;2022-10-19T03:23:11;99452.13;;;12.66;67.44
44697;BME280;57264;47.480;19.354;2022-10-19T03:25:36;99454.63;;;12.87;66.75
44697;BME280;57264;47.480;19.354;2022-10-19T03:28:02;99453.22;;;13.05;66.27
44697;BME280;57264;47.480;19.354;2022-10-19T03:30:27;99457.38;;;13.27;65.73
44697;BME280;57264;47.480;19.354;2022-10-19T03:32:53;99457.19;;;13.49;64.95
44697;BME280;57264;47.480;19.354;2022-10-19T03:35:18;99463.00;;;13.66;64.84
44697;BME280;57264;47.480;19.354;2022-10-19T03:37:44;99452.13;;;13.72;64.59
44697;BME280;57264;47.480;19.354;2022-10-19T03:40:09;99450.66;;;13.76;64.17
44697;BME280;57264;47.480;19.354;2022-10-19T03:42:35;99442.72;;;13.82;63.77
44697;BME280;57264;47.480;19.354;2022-10-19T03:45:01;99448.91;;;13.95;63.65
44697;BME280;57264;47.480;19.354;2022-10-19T03:47:26;99454.38;;;13.89;63.36
44697;BME280;57264;47.480;19.354;2022-10-19T03:49:52;99464.41;;;13.88;63.37
44697;BME280;57264;47.480;19.354;2022-10-19T03:52:18;99462.09;;;13.92;63.28
44697;BME280;57264;47.480;19.354;2022-10-19T03:54:44;99467.31;;;13.87;63.32
44697;BME280;57264;47.480;19.354;2022-10-19T03:57:11;99468.78;;;13.83;63.31
44697;BME280;57264;47.480;19.354;2022-10-19T03:59:36;99461.69;;;13.88;63.11
44697;BME280;57264;47.480;19.354;2022-10-19T04:02:03;99457.28;;;13.94;63.17
44697;BME280;57264;47.480;19.354;2022-10-19T04:04:28;99459.78;;;13.89;63.07
44697;BME280;57264;47.480;19.354;2022-10-19T04:06:54;99459.63;;;13.84;63.90
44697;BME280;57264;47.480;19.354;2022-10-19T04:09:21;99451.72;;;13.75;63.96
44697;BME280;57264;47.480;19.354;2022-10-19T04:11:47;99443.78;;;13.67;63.48
44697;BME280;57264;47.480;19.354;2022-10-19T04:14:15;99441.91;;;13.61;64.19
44697;BME280;57264;47.480;19.354;2022-10-19T04:16:40;99449.47;;;13.52;64.86
44697;BME280;57264;47.480;19.354;2022-10-19T04:19:07;99445.06;;;13.45;64.36
44697;BME280;57264;47.480;19.354;2022-10-19T04:21:37;99446.13;;;13.24;65.25
44697;BME280;57264;47.480;19.354;2022-10-19T04:24:14;99441.31;;;12.99;66.53
44697;BME280;57264;47.480;19.354;2022-10-19T04:26:59;99456.72;;;12.72;68.14
44697;BME280;57264;47.480;19.354;2022-10-19T04:29:25;99457.28;;;12.47;69.28
44697;BME280;57264;47.480;19.354;2022-10-19T04:31:51;99455.00;;;12.44;68.44
44697;BME280;57264;47.480;19.354;2022-10-19T04:34:18;99452.31;;;12.58;67.54
44697;BME280;57264;47.480;19.354;2022-10-19T04:36:43;99443.53;;;12.49;68.27
44697;BME280;57264;47.480;19.354;2022-10-19T04:39:09;99443.53;;;12.35;69.04
44697;BME280;57264;47.480;19.354;2022-10-19T04:41:36;99449.59;;;12.44;68.43
44697;BME280;57264;47.480;19.354;2022-10-19T04:44:03;99442.50;;;12.50;68.57
44697;BME280;57264;47.480;19.354;2022-10-19T04:46:29;99440.00;;;12.48;68.53
44697;BME280;57264;47.480;19.354;2022-10-19T04:48:55;99439.38;;;12.40;68.87
44697;BME280;57264;47.480;19.354;2022-10-19T04:51:22;99428.28;;;12.28;69.15
44697;BME280;57264;47.480;19.354;2022-10-19T04:53:47;99442.22;;;12.25;69.66
44697;BME280;57264;47.480;19.354;2022-10-19T04:56:19;99437.84;;;12.17;69.78
44697;BME280;57264;47.480;19.354;2022-10-19T04:58:45;99427.97;;;11.96;70.04
44697;BME280;57264;47.480;19.354;2022-10-19T05:01:18;99428.66;;;11.77;70.90
44697;BME280;57264;47.480;19.354;2022-10-19T05:03:44;99432.09;;;11.57;72.02
44697;BME280;57264;47.480;19.354;2022-10-19T05:06:11;99438.16;;;11.59;72.46
44697;BME280;57264;47.480;19.354;2022-10-19T05:08:38;99445.53;;;11.79;71.96
44697;BME280;57264;47.480;19.354;2022-10-19T05:11:10;99443.88;;;11.78;71.86
44697;BME280;57264;47.480;19.354;2022-10-19T05:13:36;99446.03;;;11.89;71.41
44697;BME280;57264;47.480;19.354;2022-10-19T05:16:04;99448.91;;;11.87;71.59
44697;BME280;57264;47.480;19.354;2022-10-19T05:18:30;99450.56;;;11.82;71.36
44697;BME280;57264;47.480;19.354;2022-10-19T05:21:12;99463.88;;;11.83;72.44
44697;BME280;57264;47.480;19.354;2022-10-19T05:23:39;99470.06;;;12.12;72.40
44697;BME280;57264;47.480;19.354;2022-10-19T05:26:05;99472.59;;;12.13;71.64
44697;BME280;57264;47.480;19.354;2022-10-19T05:28:32;99479.38;;;11.96;71.98
44697;BME280;57264;47.480;19.354;2022-10-19T05:31:09;99466.00;;;11.88;72.51
44697;BME280;57264;47.480;19.354;2022-10-19T05:33:36;99470.03;;;11.70;72.90
44697;BME280;57264;47.480;19.354;2022-10-19T05:36:46;99485.16;;;11.58;73.20
44697;BME280;57264;47.480;19.354;2022-10-19T05:39:14;99483.66;;;11.49;73.32
44697;BME280;57264;47.480;19.354;2022-10-19T05:41:44;99484.25;;;11.44;73.43
44697;BME280;57264;47.480;19.354;2022-10-19T05:44:16;99477.38;;;11.42;74.04
44697;BME280;57264;47.480;19.354;2022-10-19T05:46:41;99480.06;;;11.42;73.81
44697;BME280;57264;47.480;19.354;2022-10-19T05:49:08;99488.59;;;11.45;73.70
44697;BME280;57264;47.480;19.354;2022-10-19T05:51:34;99487.00;;;11.51;73.67
44697;BME280;57264;47.480;19.354;2022-10-19T05:53:59;99488.03;;;11.85;74.26
44697;BME280;57264;47.480;19.354;2022-10-19T05:56:27;99486.63;;;12.37;72.66
44697;BME280;57264;47.480;19.354;2022-10-19T05:58:54;99493.59;;;12.66;71.86
44697;BME280;57264;47.480;19.354;2022-10-19T06:01:20;99500.38;;;13.10;70.06
44697;BME280;57264;47.480;19.354;2022-10-19T06:03:50;99502.47;;;13.55;68.87
44697;BME280;57264;47.480;19.354;2022-10-19T06:06:17;99502.22;;;13.90;67.76
44697;BME280;57264;47.480;19.354;2022-10-19T06:08:43;99503.16;;;14.15;66.33
44697;BME280;57264;47.480;19.354;2022-10-19T06:11:09;99500.53;;;14.47;64.95
44697;BME280;57264;47.480;19.354;2022-10-19T06:13:37;99497.34;;;14.64;64.59
44697;BME280;57264;47.480;19.354;2022-10-19T06:16:03;99514.63;;;14.76;64.37
44697;BME280;57264;47.480;19.354;2022-10-19T06:18:30;99524.94;;;14.99;63.64
44697;BME280;57264;47.480;19.354;2022-10-19T06:21:03;99531.16;;;15.38;62.71
44697;BME280;57264;47.480;19.354;2022-10-19T06:23:31;99532.94;;;15.51;62.41
44697;BME280;57264;47.480;19.354;2022-10-19T06:25:58;99542.19;;;15.68;62.12
44697;BME280;57264;47.480;19.354;2022-10-19T06:28:23;99550.38;;;15.68;61.71
44697;BME280;57264;47.480;19.354;2022-10-19T06:30:49;99545.59;;;15.64;62.40
44697;BME280;57264;47.480;19.354;2022-10-19T06:33:15;99540.03;;;15.84;61.29
44697;BME280;57264;47.480;19.354;2022-10-19T06:35:40;99550.78;;;15.97;61.15
44697;BME280;57264;47.480;19.354;2022-10-19T06:38:08;99552.59;;;16.03;61.28
44697;BME280;57264;47.480;19.354;2022-10-19T06:40:34;99554.50;;;16.03;61.01
44697;BME280;57264;47.480;19.354;2022-10-19T06:43:00;99549.16;;;15.89;60.97
44697;BME280;57264;47.480;19.354;2022-10-19T06:45:26;99561.50;;;15.67;61.90
44697;BME280;57264;47.480;19.354;2022-10-19T06:47:52;99549.00;;;15.84;60.93
44697;BME280;57264;47.480;19.354;2022-10-19T06:50:17;99553.16;;;15.87;61.17
44697;BME280;57264;47.480;19.354;2022-10-19T06:52:43;99557.13;;;15.91;60.97
44697;BME280;57264;47.480;19.354;2022-10-19T06:55:09;99563.22;;;15.61;61.89
44697;BME280;57264;47.480;19.354;2022-10-19T06:57:34;99564.16;;;15.48;62.52
44697;BME280;57264;47.480;19.354;2022-10-19T06:59:59;99569.22;;;15.45;62.93
44697;BME280;57264;47.480;19.354;2022-10-19T07:02:25;99569.09;;;15.58;62.43
44697;BME280;57264;47.480;19.354;2022-10-19T07:04:50;99568.44;;;15.63;62.45
44697;BME280;57264;47.480;19.354;2022-10-19T07:07:16;99578.44;;;15.75;62.14
44697;BME280;57264;47.480;19.354;2022-10-19T07:09:41;99579.97;;;15.65;62.15
44697;BME280;57264;47.480;19.354;2022-10-19T07:12:07;99565.75;;;15.56;62.76
44697;BME280;57264;47.480;19.354;2022-10-19T07:14:35;99578.56;;;15.81;62.29
44697;BME280;57264;47.480;19.354;2022-10-19T07:17:07;99584.59;;;16.08;61.67
44697;BME280;57264;47.480;19.354;2022-10-19T07:19:34;99575.00;;;16.05;61.44
44697;BME280;57264;47.480;19.354;2022-10-19T07:21:59;99589.63;;;16.11;61.04
44697;BME280;57264;47.480;19.354;2022-10-19T07:24:25;99588.41;;;16.07;61.29
44697;BME280;57264;47.480;19.354;2022-10-19T07:26:50;99590.75;;;16.22;60.74
44697;BME280;57264;47.480;19.354;2022-10-19T07:29:16;99598.03;;;16.28;60.58
44697;BME280;57264;47.480;19.354;2022-10-19T07:31:41;99598.06;;;16.46;60.71
44697;BME280;57264;47.480;19.354;2022-10-19T07:34:10;99596.84;;;16.42;60.42
44697;BME280;57264;47.480;19.354;2022-10-19T07:36:36;99597.28;;;16.57;60.68
44697;BME280;57264;47.480;19.354;2022-10-19T07:39:03;99602.66;;;16.83;59.79
44697;BME280;57264;47.480;19.354;2022-10-19T07:41:30;99602.66;;;16.83;59.37
44697;BME280;57264;47.480;19.354;2022-10-19T07:43:56;99605.56;;;16.88;59.56
44697;BME280;57264;47.480;19.354;2022-10-19T07:46:25;99617.75;;;16.85;59.02
44697;BME280;57264;47.480;19.354;2022-10-19T07:48:53;99617.00;;;17.08;58.51
44697;BME280;57264;47.480;19.354;2022-10-19T07:51:20;99614.97;;;17.04;57.86
44697;BME280;57264;47.480;19.354;2022-10-19T07:53:46;99609.78;;;17.02;58.15
44697;BME280;57264;47.480;19.354;2022-10-19T07:56:13;99605.56;;;17.18;58.51
44697;BME280;57264;47.480;19.354;2022-10-19T07:58:40;99597.03;;;17.26;57.20
44697;BME280;57264;47.480;19.354;2022-10-19T08:01:10;99595.66;;;17.35;57.36
44697;BME280;57264;47.480;19.354;2022-10-19T08:03:36;99590.91;;;17.43;56.37
44697;BME280;57264;47.480;19.354;2022-10-19T08:06:05;99593.06;;;17.40;56.00
44697;BME280;57264;47.480;19.354;2022-10-19T08:08:31;99591.56;;;17.56;56.30
44697;BME280;57264;47.480;19.354;2022-10-19T08:10:57;99593.94;;;17.65;56.20
44697;BME280;57264;47.480;19.354;2022-10-19T08:13:23;99599.00;;;17.37;56.91
44697;BME280;57264;47.480;19.354;2022-10-19T08:15:49;99591.38;;;17.39;57.01
44697;BME280;57264;47.480;19.354;2022-10-19T08:18:14;99590.25;;;17.59;56.84
44697;BME280;57264;47.480;19.354;2022-10-19T08:20:42;99592.94;;;17.47;57.09
44697;BME280;57264;47.480;19.354;2022-10-19T08:23:08;99579.44;;;17.52;57.27
44697;BME280;57264;47.480;19.354;2022-10-19T08:25:34;99593.50;;;17.79;56.35
44697;BME280;57264;47.480;19.354;2022-10-19T08:27:59;99607.69;;;18.00;56.07
44697;BME280;57264;47.480;19.354;2022-10-19T08:30:25;99600.19;;;18.19;56.30
44697;BME280;57264;47.480;19.354;2022-10-19T08:32:50;99613.00;;;18.18;55.49
44697;BME280;57264;47.480;19.354;2022-10-19T08:35:15;99600.28;;;18.24;54.81
44697;BME280;57264;47.480;19.354;2022-10-19T08:37:41;99601.00;;;18.08;55.32
44697;BME280;57264;47.480;19.354;2022-10-19T08:40:17;99604.69;;;18.13;56.46
44697;BME280;57264;47.480;19.354;2022-10-19T08:42:52;99601.25;;;18.30;56.70
44697;BME280;57264;47.480;19.354;2022-10-19T08:50:43;99602.53;;;18.51;54.80
44697;BME280;57264;47.480;19.354;2022-10-19T08:53:15;99602.75;;;18.61;54.20
44697;BME280;57264;47.480;19.354;2022-10-19T09:01:04;99605.94;;;18.70;54.54
44697;BME280;57264;47.480;19.354;2022-10-19T09:03:40;99607.94;;;18.86;53.63
44697;BME280;57264;47.480;19.354;2022-10-19T09:08:44;99613.72;;;19.01;53.42
44697;BME280;57264;47.480;19.354;2022-10-19T09:11:10;99611.19;;;19.12;52.89
44697;BME280;57264;47.480;19.354;2022-10-19T09:13:46;99599.47;;;19.16;52.26
44697;BME280;57264;47.480;19.354;2022-10-19T09:16:16;99584.09;;;19.27;52.96
44697;BME280;57264;47.480;19.354;2022-10-19T09:18:43;99592.06;;;19.46;52.28
44697;BME280;57264;47.480;19.354;2022-10-19T09:21:15;99595.16;;;19.66;51.51
44697;BME280;57264;47.480;19.354;2022-10-19T09:26:27;99604.44;;;19.94;52.03
44697;BME280;57264;47.480;19.354;2022-10-19T09:31:35;99600.25;;;20.08;51.04
44697;BME280;57264;47.480;19.354;2022-10-19T09:36:44;99605.50;;;19.93;51.74
44697;BME280;57264;47.480;19.354;2022-10-19T09:39:13;99610.41;;;19.91;51.71
44697;BME280;57264;47.480;19.354;2022-10-19T09:41:52;99603.91;;;19.97;51.56
44697;BME280;57264;47.480;19.354;2022-10-19T09:44:18;99600.00;;;20.10;50.54
44697;BME280;57264;47.480;19.354;2022-10-19T09:46:48;99608.38;;;20.20;51.01
44697;BME280;57264;47.480;19.354;2022-10-19T09:49:19;99603.81;;;20.26;51.27
44697;BME280;57264;47.480;19.354;2022-10-19T09:52:02;99600.81;;;20.27;51.45
44697;BME280;57264;47.480;19.354;2022-10-19T09:54:34;99604.97;;;20.30;50.59
44697;BME280;57264;47.480;19.354;2022-10-19T09:57:01;99607.63;;;20.25;50.75
44697;BME280;57264;47.480;19.354;2022-10-19T09:59:33;99596.59;;;20.41;50.24
44697;BME280;57264;47.480;19.354;2022-10-19T10:02:09;99592.94;;;20.53;50.46
44697;BME280;57264;47.480;19.354;2022-10-19T10:04:38;99585.19;;;20.50;49.23
44697;BME280;57264;47.480;19.354;2022-10-19T10:07:03;99592.94;;;20.53;48.91
44697;BME280;57264;47.480;19.354;2022-10-19T10:09:29;99586.00;;;20.89;49.29
44697;BME280;57264;47.480;19.354;2022-10-19T10:11:58;99583.56;;;20.93;47.63
44697;BME280;57264;47.480;19.354;2022-10-19T10:14:32;99579.94;;;21.41;47.98
44697;BME280;57264;47.480;19.354;2022-10-19T10:17:05;99577.09;;;21.91;46.28
44697;BME280;57264;47.480;19.354;2022-10-19T10:19:33;99581.22;;;22.26;45.26
44697;BME280;57264;47.480;19.354;2022-10-19T10:22:02;99577.22;;;22.49;44.96
44697;BME280;57264;47.480;19.354;2022-10-19T10:24:30;99575.69;;;22.78;44.17
44697;BME280;57264;47.480;19.354;2022-10-19T10:27:01;99576.19;;;22.70;43.51
44697;BME280;57264;47.480;19.354;2022-10-19T10:29:28;99559.97;;;22.79;44.89
44697;BME280;57264;47.480;19.354;2022-10-19T10:32:04;99561.06;;;22.68;44.63
44697;BME280;57264;47.480;19.354;2022-10-19T10:34:37;99560.78;;;22.69;44.95
44697;BME280;57264;47.480;19.354;2022-10-19T10:37:06;99550.50;;;22.44;44.54
44697;BME280;57264;47.480;19.354;2022-10-19T10:39:39;99561.56;;;22.59;43.54
44697;BME280;57264;47.480;19.354;2022-10-19T10:42:15;99550.78;;;22.48;44.07
44697;BME280;57264;47.480;19.354;2022-10-19T10:44:47;99543.25;;;22.28;45.47
44697;BME280;57264;47.480;19.354;2022-10-19T10:47:17;99548.78;;;22.33;46.38
44697;BME280;57264;47.480;19.354;2022-10-19T10:50:02;99544.09;;;22.28;45.20
44697;BME280;57264;47.480;19.354;2022-10-19T10:52:31;99545.53;;;22.41;45.98
44697;BME280;57264;47.480;19.354;2022-10-19T10:57:40;99539.03;;;22.15;46.32
44697;BME280;57264;47.480;19.354;2022-10-19T11:00:16;99537.72;;;21.85;46.47
44697;BME280;57264;47.480;19.354;2022-10-19T11:03:21;99533.84;;;21.76;46.21
44697;BME280;57264;47.480;19.354;2022-10-19T11:05:56;99526.94;;;21.73;45.38
44697;BME280;57264;47.480;19.354;2022-10-19T11:11:21;99531.84;;;21.39;45.30
44697;BME280;57264;47.480;19.354;2022-10-19T11:16:21;99521.59;;;20.53;47.52
44697;BME280;57264;47.480;19.354;2022-10-19T11:19:00;99523.41;;;20.42;47.68
44697;BME280;57264;47.480;19.354;2022-10-19T11:38:13;99487.41;;;21.42;45.31
44697;BME280;57264;47.480;19.354;2022-10-19T11:41:45;99482.13;;;21.08;44.72
44697;BME280;57264;47.480;19.354;2022-10-19T11:43:55;99483.53;;;21.11;44.38
44697;BME280;57264;47.480;19.354;2022-10-19T11:46:48;99484.22;;;20.96;44.58
44697;BME280;57264;47.480;19.354;2022-10-19T11:51:53;99476.19;;;20.89;42.88
44697;BME280;57264;47.480;19.354;2022-10-19T11:57:15;99469.25;;;20.81;42.69
44697;BME280;57264;47.480;19.354;2022-10-19T12:14:59;99465.66;;;20.32;40.38
44697;BME280;57264;47.480;19.354;2022-10-19T12:17:30;99455.47;;;20.27;37.68
44697;BME280;57264;47.480;19.354;2022-10-19T12:20:04;99452.72;;;20.27;39.89
44697;BME280;57264;47.480;19.354;2022-10-19T12:22:33;99465.00;;;20.25;40.29
44697;BME280;57264;47.480;19.354;2022-10-19T12:25:02;99453.78;;;20.26;40.76
44697;BME280;57264;47.480;19.354;2022-10-19T12:27:35;99448.19;;;20.16;41.21
44697;BME280;57264;47.480;19.354;2022-10-19T12:30:14;99449.41;;;20.03;42.11
44697;BME280;57264;47.480;19.354;2022-10-19T12:38:17;99451.81;;;19.77;41.46
44697;BME280;57264;47.480;19.354;2022-10-19T12:41:17;99436.50;;;19.81;42.16
44697;BME280;57264;47.480;19.354;2022-10-19T12:46:50;99448.41;;;19.53;43.92
44697;BME280;57264;47.480;19.354;2022-10-19T12:51:59;99429.97;;;19.49;44.42
44697;BME280;57264;47.480;19.354;2022-10-19T12:54:30;99428.91;;;19.33;43.26
44697;BME280;57264;47.480;19.354;2022-10-19T12:56:59;99432.16;;;19.30;44.76
44697;BME280;57264;47.480;19.354;2022-10-19T12:59:29;99431.75;;;19.38;43.92
44697;BME280;57264;47.480;19.354;2022-10-19T13:01:56;99424.16;;;19.45;44.70
44697;BME280;57264;47.480;19.354;2022-10-19T13:04:25;99420.66;;;19.50;44.53
44697;BME280;57264;47.480;19.354;2022-10-19T13:09:35;99425.56;;;19.48;44.67
44697;BME280;57264;47.480;19.354;2022-10-19T13:25:35;99418.47;;;19.13;42.34
44697;BME280;57264;47.480;19.354;2022-10-19T13:38:44;99428.56;;;19.12;42.02
44697;BME280;57264;47.480;19.354;2022-10-19T13:44:22;99433.16;;;19.07;41.77
44697;BME280;57264;47.480;19.354;2022-10-19T13:50:35;99414.66;;;18.97;42.32
44697;BME280;57264;47.480;19.354;2022-10-19T13:53:23;99421.44;;;18.94;43.04
44697;BME280;57264;47.480;19.354;2022-10-19T13:56:00;99415.56;;;19.03;43.01
44697;BME280;57264;47.480;19.354;2022-10-19T14:04:38;99419.38;;;18.73;43.42
44697;BME280;57264;47.480;19.354;2022-10-19T14:07:14;99421.66;;;18.76;43.05
44697;BME280;57264;47.480;19.354;2022-10-19T14:10:14;99416.88;;;18.83;43.09
44697;BME280;57264;47.480;19.354;2022-10-19T14:12:43;99424.19;;;18.66;43.01
44697;BME280;57264;47.480;19.354;2022-10-19T14:17:52;99424.31;;;18.42;41.98
44697;BME280;57264;47.480;19.354;2022-10-19T14:20:28;99421.19;;;18.50;42.27
44697;BME280;57264;47.480;19.354;2022-10-19T14:22:55;99411.22;;;18.44;42.38
44697;BME280;57264;47.480;19.354;2022-10-19T14:25:27;99415.03;;;18.43;42.11
44697;BME280;57264;47.480;19.354;2022-10-19T14:28:04;99411.41;;;18.26;42.88
44697;BME280;57264;47.480;19.354;2022-10-19T14:30:34;99402.50;;;18.18;43.17
44697;BME280;57264;47.480;19.354;2022-10-19T14:33:06;99412.63;;;18.18;42.78
44697;BME280;57264;47.480;19.354;2022-10-19T14:35:36;99410.41;;;18.03;43.51
44697;BME280;57264;47.480;19.354;2022-10-19T14:38:07;99412.66;;;18.06;43.56
44697;BME280;57264;47.480;19.354;2022-10-19T14:40:40;99406.63;;;18.04;43.79
44697;BME280;57264;47.480;19.354;2022-10-19T14:43:25;99421.38;;;17.91;43.37
44697;BME280;57264;47.480;19.354;2022-10-19T14:48:42;99419.25;;;17.82;44.23
44697;BME280;57264;47.480;19.354;2022-10-19T14:54:07;99416.28;;;17.59;45.30
44697;BME280;57264;47.480;19.354;2022-10-19T14:56:50;99414.03;;;17.45;45.82
44697;BME280;57264;47.480;19.354;2022-10-19T15:02:38;99416.63;;;17.39;45.83
44697;BME280;57264;47.480;19.354;2022-10-19T15:05:18;99415.94;;;17.32;46.11
44697;BME280;57264;47.480;19.354;2022-10-19T15:07:44;99426.25;;;17.18;46.00
44697;BME280;57264;47.480;19.354;2022-10-19T15:10:23;99433.25;;;17.03;46.49
44697;BME280;57264;47.480;19.354;2022-10-19T15:12:55;99432.50;;;16.95;46.04
44697;BME280;57264;47.480;19.354;2022-10-19T15:15:25;99433.31;;;16.84;46.54
44697;BME280;57264;47.480;19.354;2022-10-19T15:20:30;99438.44;;;16.62;46.73
44697;BME280;57264;47.480;19.354;2022-10-19T15:22:59;99431.88;;;16.51;45.76
44697;BME280;57264;47.480;19.354;2022-10-19T15:25:37;99436.94;;;16.36;45.90
44697;BME280;57264;47.480;19.354;2022-10-19T15:28:40;99437.16;;;16.34;45.80
44697;BME280;57264;47.480;19.354;2022-10-19T15:31:19;99435.22;;;16.23;46.01
44697;BME280;57264;47.480;19.354;2022-10-19T15:33:52;99455.72;;;16.07;45.95
44697;BME280;57264;47.480;19.354;2022-10-19T15:36:18;99441.38;;;16.00;46.42
44697;BME280;57264;47.480;19.354;2022-10-19T15:39:05;99441.13;;;15.83;46.72
44697;BME280;57264;47.480;19.354;2022-10-19T15:41:37;99432.84;;;15.71;46.99
44697;BME280;57264;47.480;19.354;2022-10-19T15:44:30;99432.94;;;15.65;47.25
44697;BME280;57264;47.480;19.354;2022-10-19T15:52:19;99433.53;;;15.23;48.56